Boynton Beach, FL (33435)

10:49 AM EST on February 14, 2016 (GMT -0500)
Forest Park | | Change Station
CLOSE
Current Station
Personal Weather Station
Location: Boynton Beach, FL
Elevation: 15 ft
Nearby Weather Stations

Elev 15 ft 26.52 °N, 80.07 °W | Updated 12 seconds ago

Partly Cloudy
Partly Cloudy
70.7 °F
Feels Like 76 °F
N
3.5
Wind Variable Wind from NE
Gusts 3.5 mph

Today
High -- | Low -- °F
--% Chance of Precip.
Yesterday
High -- | Low -- °F
Precip. -- in
Pressure 30.25 in
Visibility 10.0 miles
Clouds Scattered Clouds 4500 ft
Heat Index 76 °F
Dew Point 56 °F
Humidity 59%
Rainfall 0.00 in
Snow Depth Not available.
6:57 AM 6:11 PM
Waxing Crescent, 43% visible
METAR KPBI 141453Z 08012KT 10SM SCT045 21/08 A3024 RMK AO2 SLP241 T02060083 53012 $
Pressure 30.25 in
Visibility 10.0 miles
Clouds Scattered Clouds 4500 ft
Heat Index 76 °F
Dew Point 56 °F
Humidity 59%
Rainfall 0.00 in
Snow Depth Not available.
6:57 AM 6:11 PM
Waxing Crescent, 43% visible
METAR KPBI 141453Z 08012KT 10SM SCT045 21/08 A3024 RMK AO2 SLP241 T02060083 53012 $

10-Day Weather Forecast

Almanac

Astronomy

Feb. 14, 2016 Rise Set
Actual Time
Civil Twilight
Nautical Twilight
Astronomical Twilight
Moon
Length of Visible Light
Length of Day
Tomorrow will be .
, % of the Moon is Illuminated

Today's Extremes

State Highs State Lows

Community

WunderPhotos

Upload Photos

1,892,802 photos uploaded!

WunderBlog® & News

Nearby

Air Quality

  Air Quality AQ Index Pollutant
Not available.

Snow Depth

Station Depth Elevation

Earthquake Activity

City Distance Mag. Time & Date
Minimum magnitude displayed is 2.5.

Coastal Water Temperatures

Place Temperature

Stations

Nearby Weather Stations

Station Location Temp. Windchill Dew Point Humidity Wind Precip. Elev Updated Type
                   

Watches & Warnings

There are currently no watches in effect.